Williston, Ohio
Current Conditions -  °F | °C
As of 1:53 AM on Friday 19 Dec 2014 (Local Time) from KTDZ Reporting Station
Overcast Overcast  
Wind Chill: 22°   Ceiling: 1200
Heat Index: 30°   Visibility: 8mi
Dew Point: 25°   Wind: 8mph
Humidity: 82%   Direction: 280°W
Pressure: 30.21"   Gusts: NA
Location:  41.6°N, 83.34°W
Report Text: KTDZ 190653Z AUTO 28007KT 8SM BKN012 OVC033 M01/M04 A3021 RMK AO2 SLP235 T10111039 TSNO
Loading
Personal Weather Stations






























Interactive Weather Map New forecast layout! Learn more

10-Day Weather Forecast

Advertisements
Track Severe Weather on mobile